sensor_id;sensor_type;location;lat;lon;timestamp;P1;durP1;ratioP1;P2;durP2;ratioP2
6223;SDS011;3145;42.726;23.342;2023-09-19T00:02:21;7.37;;;6.67;;
6223;SDS011;3145;42.726;23.342;2023-09-19T00:04:48;6.40;;;5.90;;
6223;SDS011;3145;42.726;23.342;2023-09-19T00:07:15;7.83;;;6.10;;
6223;SDS011;3145;42.726;23.342;2023-09-19T00:09:42;6.60;;;6.03;;
6223;SDS011;3145;42.726;23.342;2023-09-19T00:12:09;6.57;;;6.00;;
6223;SDS011;3145;42.726;23.342;2023-09-19T00:14:38;6.77;;;6.17;;
6223;SDS011;3145;42.726;23.342;2023-09-19T00:17:05;9.10;;;6.37;;
6223;SDS011;3145;42.726;23.342;2023-09-19T00:19:34;7.97;;;6.93;;
6223;SDS011;3145;42.726;23.342;2023-09-19T00:22:02;7.57;;;6.90;;
6223;SDS011;3145;42.726;23.342;2023-09-19T00:24:29;7.60;;;6.53;;
6223;SDS011;3145;42.726;23.342;2023-09-19T00:26:55;7.37;;;6.63;;
6223;SDS011;3145;42.726;23.342;2023-09-19T00:29:24;6.77;;;6.17;;
6223;SDS011;3145;42.726;23.342;2023-09-19T00:31:54;7.77;;;6.23;;
6223;SDS011;3145;42.726;23.342;2023-09-19T00:34:22;6.43;;;5.83;;
6223;SDS011;3145;42.726;23.342;2023-09-19T00:36:51;11.00;;;6.30;;
6223;SDS011;3145;42.726;23.342;2023-09-19T00:39:19;7.83;;;7.00;;
6223;SDS011;3145;42.726;23.342;2023-09-19T00:41:47;13.87;;;6.87;;
6223;SDS011;3145;42.726;23.342;2023-09-19T00:44:14;6.83;;;6.33;;
6223;SDS011;3145;42.726;23.342;2023-09-19T00:46:41;14.50;;;6.80;;
6223;SDS011;3145;42.726;23.342;2023-09-19T00:49:08;7.20;;;6.33;;
6223;SDS011;3145;42.726;23.342;2023-09-19T00:51:36;7.30;;;6.70;;
6223;SDS011;3145;42.726;23.342;2023-09-19T00:54:04;7.60;;;6.90;;
6223;SDS011;3145;42.726;23.342;2023-09-19T00:56:31;8.60;;;7.80;;
6223;SDS011;3145;42.726;23.342;2023-09-19T00:58:58;7.57;;;6.73;;
6223;SDS011;3145;42.726;23.342;2023-09-19T01:01:25;7.00;;;6.40;;
6223;SDS011;3145;42.726;23.342;2023-09-19T01:03:51;8.40;;;6.97;;
6223;SDS011;3145;42.726;23.342;2023-09-19T01:06:18;10.00;;;7.20;;
6223;SDS011;3145;42.726;23.342;2023-09-19T01:08:46;7.67;;;6.87;;
6223;SDS011;3145;42.726;23.342;2023-09-19T01:11:14;7.67;;;6.97;;
6223;SDS011;3145;42.726;23.342;2023-09-19T01:13:53;7.80;;;6.80;;
6223;SDS011;3145;42.726;23.342;2023-09-19T01:16:28;8.07;;;7.37;;
6223;SDS011;3145;42.726;23.342;2023-09-19T01:19:07;9.70;;;7.37;;
6223;SDS011;3145;42.726;23.342;2023-09-19T01:22:05;8.17;;;7.37;;
6223;SDS011;3145;42.726;23.342;2023-09-19T01:24:50;8.00;;;7.20;;
6223;SDS011;3145;42.726;23.342;2023-09-19T01:27:39;8.00;;;7.40;;
6223;SDS011;3145;42.726;23.342;2023-09-19T01:30:35;10.27;;;7.63;;
6223;SDS011;3145;42.726;23.342;2023-09-19T01:33:05;8.77;;;7.00;;
6223;SDS011;3145;42.726;23.342;2023-09-19T01:35:34;8.03;;;7.40;;
6223;SDS011;3145;42.726;23.342;2023-09-19T01:38:04;7.87;;;7.27;;
6223;SDS011;3145;42.726;23.342;2023-09-19T01:40:32;8.27;;;7.57;;
6223;SDS011;3145;42.726;23.342;2023-09-19T01:43:06;8.23;;;7.40;;
6223;SDS011;3145;42.726;23.342;2023-09-19T01:45:43;8.03;;;7.33;;
6223;SDS011;3145;42.726;23.342;2023-09-19T01:48:19;9.33;;;7.10;;
6223;SDS011;3145;42.726;23.342;2023-09-19T01:50:53;8.70;;;8.00;;
6223;SDS011;3145;42.726;23.342;2023-09-19T01:53:26;11.63;;;8.00;;
6223;SDS011;3145;42.726;23.342;2023-09-19T01:55:57;8.67;;;7.93;;
6223;SDS011;3145;42.726;23.342;2023-09-19T01:58:27;9.10;;;7.77;;
6223;SDS011;3145;42.726;23.342;2023-09-19T02:01:00;8.80;;;8.20;;
6223;SDS011;3145;42.726;23.342;2023-09-19T02:03:30;8.70;;;7.90;;
6223;SDS011;3145;42.726;23.342;2023-09-19T02:05:59;8.97;;;7.60;;
6223;SDS011;3145;42.726;23.342;2023-09-19T02:08:28;15.60;;;8.43;;
6223;SDS011;3145;42.726;23.342;2023-09-19T02:10:56;9.50;;;8.03;;
6223;SDS011;3145;42.726;23.342;2023-09-19T02:13:23;8.30;;;7.70;;
6223;SDS011;3145;42.726;23.342;2023-09-19T02:15:52;9.40;;;8.50;;
6223;SDS011;3145;42.726;23.342;2023-09-19T02:18:20;8.43;;;7.83;;
6223;SDS011;3145;42.726;23.342;2023-09-19T02:20:46;10.03;;;8.47;;
6223;SDS011;3145;42.726;23.342;2023-09-19T02:23:13;9.90;;;8.93;;
6223;SDS011;3145;42.726;23.342;2023-09-19T02:25:42;9.33;;;8.43;;
6223;SDS011;3145;42.726;23.342;2023-09-19T02:28:08;14.57;;;8.37;;
6223;SDS011;3145;42.726;23.342;2023-09-19T02:30:35;10.03;;;8.80;;
6223;SDS011;3145;42.726;23.342;2023-09-19T02:33:02;11.67;;;8.47;;
6223;SDS011;3145;42.726;23.342;2023-09-19T02:35:31;9.73;;;8.83;;
6223;SDS011;3145;42.726;23.342;2023-09-19T02:38:00;10.80;;;8.40;;
6223;SDS011;3145;42.726;23.342;2023-09-19T02:40:27;9.17;;;8.27;;
6223;SDS011;3145;42.726;23.342;2023-09-19T02:42:54;8.83;;;8.07;;
6223;SDS011;3145;42.726;23.342;2023-09-19T02:45:24;10.00;;;9.10;;
6223;SDS011;3145;42.726;23.342;2023-09-19T02:47:51;9.43;;;8.63;;
6223;SDS011;3145;42.726;23.342;2023-09-19T02:50:18;9.40;;;8.57;;
6223;SDS011;3145;42.726;23.342;2023-09-19T02:52:46;11.17;;;8.63;;
6223;SDS011;3145;42.726;23.342;2023-09-19T02:55:14;8.93;;;7.93;;
6223;SDS011;3145;42.726;23.342;2023-09-19T02:57:45;9.67;;;8.80;;
6223;SDS011;3145;42.726;23.342;2023-09-19T03:00:12;9.27;;;8.40;;
6223;SDS011;3145;42.726;23.342;2023-09-19T03:02:39;10.07;;;8.87;;
6223;SDS011;3145;42.726;23.342;2023-09-19T03:05:06;9.67;;;8.83;;
6223;SDS011;3145;42.726;23.342;2023-09-19T03:07:36;9.70;;;8.77;;
6223;SDS011;3145;42.726;23.342;2023-09-19T03:10:05;10.07;;;9.17;;
6223;SDS011;3145;42.726;23.342;2023-09-19T03:12:32;10.40;;;9.40;;
6223;SDS011;3145;42.726;23.342;2023-09-19T03:15:00;12.27;;;9.40;;
6223;SDS011;3145;42.726;23.342;2023-09-19T03:17:26;10.07;;;9.17;;
6223;SDS011;3145;42.726;23.342;2023-09-19T03:19:53;13.60;;;10.07;;
6223;SDS011;3145;42.726;23.342;2023-09-19T03:22:20;12.07;;;9.90;;
6223;SDS011;3145;42.726;23.342;2023-09-19T03:24:47;13.33;;;9.90;;
6223;SDS011;3145;42.726;23.342;2023-09-19T03:27:15;10.70;;;9.67;;
6223;SDS011;3145;42.726;23.342;2023-09-19T03:29:42;10.77;;;9.70;;
6223;SDS011;3145;42.726;23.342;2023-09-19T03:32:09;10.80;;;9.30;;
6223;SDS011;3145;42.726;23.342;2023-09-19T03:34:36;11.83;;;9.60;;
6223;SDS011;3145;42.726;23.342;2023-09-19T03:37:05;11.37;;;10.23;;
6223;SDS011;3145;42.726;23.342;2023-09-19T03:39:32;11.67;;;10.40;;
6223;SDS011;3145;42.726;23.342;2023-09-19T03:41:59;11.70;;;10.53;;
6223;SDS011;3145;42.726;23.342;2023-09-19T03:44:27;12.03;;;10.80;;
6223;SDS011;3145;42.726;23.342;2023-09-19T03:46:53;11.23;;;9.77;;
6223;SDS011;3145;42.726;23.342;2023-09-19T03:49:21;10.03;;;9.13;;
6223;SDS011;3145;42.726;23.342;2023-09-19T03:51:48;10.53;;;9.13;;
6223;SDS011;3145;42.726;23.342;2023-09-19T03:54:15;15.27;;;9.57;;
6223;SDS011;3145;42.726;23.342;2023-09-19T03:56:42;12.33;;;9.93;;
6223;SDS011;3145;42.726;23.342;2023-09-19T03:59:08;12.90;;;8.97;;
6223;SDS011;3145;42.726;23.342;2023-09-19T04:01:37;13.03;;;9.37;;
6223;SDS011;3145;42.726;23.342;2023-09-19T04:04:06;11.27;;;9.93;;
6223;SDS011;3145;42.726;23.342;2023-09-19T04:06:34;10.77;;;9.70;;
6223;SDS011;3145;42.726;23.342;2023-09-19T04:09:01;15.00;;;10.00;;
6223;SDS011;3145;42.726;23.342;2023-09-19T04:11:29;11.20;;;10.00;;
6223;SDS011;3145;42.726;23.342;2023-09-19T04:13:56;15.53;;;9.70;;
6223;SDS011;3145;42.726;23.342;2023-09-19T04:16:23;10.13;;;9.13;;
6223;SDS011;3145;42.726;23.342;2023-09-19T04:18:51;15.50;;;11.40;;
6223;SDS011;3145;42.726;23.342;2023-09-19T04:21:17;12.30;;;9.83;;
6223;SDS011;3145;42.726;23.342;2023-09-19T04:23:44;11.40;;;10.13;;
6223;SDS011;3145;42.726;23.342;2023-09-19T04:26:11;16.07;;;10.37;;
6223;SDS011;3145;42.726;23.342;2023-09-19T04:28:38;11.63;;;10.53;;
6223;SDS011;3145;42.726;23.342;2023-09-19T04:31:05;17.17;;;11.03;;
6223;SDS011;3145;42.726;23.342;2023-09-19T04:33:33;16.60;;;11.50;;
6223;SDS011;3145;42.726;23.342;2023-09-19T04:36:02;19.20;;;10.93;;
6223;SDS011;3145;42.726;23.342;2023-09-19T04:38:30;15.43;;;9.90;;
6223;SDS011;3145;42.726;23.342;2023-09-19T04:40:57;13.27;;;10.13;;
6223;SDS011;3145;42.726;23.342;2023-09-19T04:43:24;19.60;;;11.37;;
6223;SDS011;3145;42.726;23.342;2023-09-19T04:45:51;22.23;;;11.67;;
6223;SDS011;3145;42.726;23.342;2023-09-19T04:48:21;29.13;;;20.83;;
6223;SDS011;3145;42.726;23.342;2023-09-19T04:50:50;49.30;;;21.93;;
6223;SDS011;3145;42.726;23.342;2023-09-19T04:53:18;38.40;;;18.97;;
6223;SDS011;3145;42.726;23.342;2023-09-19T04:55:48;40.67;;;19.40;;
6223;SDS011;3145;42.726;23.342;2023-09-19T04:58:16;50.33;;;31.80;;
6223;SDS011;3145;42.726;23.342;2023-09-19T05:00:43;60.77;;;35.97;;
6223;SDS011;3145;42.726;23.342;2023-09-19T05:03:09;29.00;;;17.03;;
6223;SDS011;3145;42.726;23.342;2023-09-19T05:05:36;19.80;;;13.03;;
6223;SDS011;3145;42.726;23.342;2023-09-19T05:08:04;14.87;;;9.97;;
6223;SDS011;3145;42.726;23.342;2023-09-19T05:10:32;14.77;;;10.10;;
6223;SDS011;3145;42.726;23.342;2023-09-19T05:13:00;17.80;;;11.67;;
6223;SDS011;3145;42.726;23.342;2023-09-19T05:15:27;21.47;;;11.80;;
6223;SDS011;3145;42.726;23.342;2023-09-19T05:17:54;18.47;;;13.57;;
6223;SDS011;3145;42.726;23.342;2023-09-19T05:20:20;19.53;;;14.10;;
6223;SDS011;3145;42.726;23.342;2023-09-19T05:22:57;11.10;;;10.00;;
6223;SDS011;3145;42.726;23.342;2023-09-19T05:25:28;10.90;;;9.80;;
6223;SDS011;3145;42.726;23.342;2023-09-19T05:27:57;7.90;;;7.13;;
6223;SDS011;3145;42.726;23.342;2023-09-19T05:30:25;7.87;;;7.00;;
6223;SDS011;3145;42.726;23.342;2023-09-19T05:32:54;8.27;;;6.47;;
6223;SDS011;3145;42.726;23.342;2023-09-19T05:35:22;8.30;;;5.90;;
6223;SDS011;3145;42.726;23.342;2023-09-19T05:37:50;7.63;;;6.43;;
6223;SDS011;3145;42.726;23.342;2023-09-19T05:40:17;6.97;;;6.27;;
6223;SDS011;3145;42.726;23.342;2023-09-19T05:42:44;6.77;;;6.00;;
6223;SDS011;3145;42.726;23.342;2023-09-19T05:45:13;7.43;;;6.27;;
6223;SDS011;3145;42.726;23.342;2023-09-19T05:47:44;6.23;;;5.73;;
6223;SDS011;3145;42.726;23.342;2023-09-19T05:50:11;6.90;;;6.30;;
6223;SDS011;3145;42.726;23.342;2023-09-19T05:52:40;7.17;;;6.57;;
6223;SDS011;3145;42.726;23.342;2023-09-19T05:55:08;17.13;;;10.73;;
6223;SDS011;3145;42.726;23.342;2023-09-19T05:57:35;21.50;;;10.10;;
6223;SDS011;3145;42.726;23.342;2023-09-19T06:00:04;8.83;;;5.67;;
6223;SDS011;3145;42.726;23.342;2023-09-19T06:02:35;45.27;;;20.03;;
6223;SDS011;3145;42.726;23.342;2023-09-19T06:05:03;16.30;;;7.80;;
6223;SDS011;3145;42.726;23.342;2023-09-19T06:07:31;14.23;;;7.73;;
6223;SDS011;3145;42.726;23.342;2023-09-19T06:10:01;7.17;;;5.97;;
6223;SDS011;3145;42.726;23.342;2023-09-19T06:12:30;10.23;;;7.57;;
6223;SDS011;3145;42.726;23.342;2023-09-19T06:14:58;10.17;;;5.90;;
6223;SDS011;3145;42.726;23.342;2023-09-19T06:17:24;7.57;;;6.83;;
6223;SDS011;3145;42.726;23.342;2023-09-19T06:19:54;7.90;;;7.20;;
6223;SDS011;3145;42.726;23.342;2023-09-19T06:22:21;9.83;;;7.07;;
6223;SDS011;3145;42.726;23.342;2023-09-19T06:24:49;7.83;;;6.10;;
6223;SDS011;3145;42.726;23.342;2023-09-19T06:27:16;7.43;;;6.00;;
6223;SDS011;3145;42.726;23.342;2023-09-19T06:29:42;5.80;;;5.30;;
6223;SDS011;3145;42.726;23.342;2023-09-19T06:32:09;6.47;;;5.87;;
6223;SDS011;3145;42.726;23.342;2023-09-19T06:34:36;5.60;;;5.10;;
6223;SDS011;3145;42.726;23.342;2023-09-19T06:37:05;5.50;;;5.10;;
6223;SDS011;3145;42.726;23.342;2023-09-19T06:39:32;5.97;;;5.37;;
6223;SDS011;3145;42.726;23.342;2023-09-19T06:41:58;7.23;;;5.53;;
6223;SDS011;3145;42.726;23.342;2023-09-19T06:44:26;5.80;;;5.30;;
6223;SDS011;3145;42.726;23.342;2023-09-19T06:46:55;5.33;;;4.83;;
6223;SDS011;3145;42.726;23.342;2023-09-19T06:49:21;6.13;;;4.20;;
6223;SDS011;3145;42.726;23.342;2023-09-19T06:51:48;10.83;;;4.87;;
6223;SDS011;3145;42.726;23.342;2023-09-19T06:54:16;5.40;;;4.77;;
6223;SDS011;3145;42.726;23.342;2023-09-19T06:56:43;6.53;;;4.83;;
6223;SDS011;3145;42.726;23.342;2023-09-19T06:59:10;8.93;;;4.60;;
6223;SDS011;3145;42.726;23.342;2023-09-19T07:01:39;5.23;;;4.63;;
6223;SDS011;3145;42.726;23.342;2023-09-19T07:04:06;5.47;;;4.97;;
6223;SDS011;3145;42.726;23.342;2023-09-19T07:06:33;5.97;;;4.73;;
6223;SDS011;3145;42.726;23.342;2023-09-19T07:09:00;5.60;;;5.20;;
6223;SDS011;3145;42.726;23.342;2023-09-19T07:11:29;5.33;;;4.90;;
6223;SDS011;3145;42.726;23.342;2023-09-19T07:13:57;5.77;;;5.10;;
6223;SDS011;3145;42.726;23.342;2023-09-19T07:16:24;5.13;;;4.63;;
6223;SDS011;3145;42.726;23.342;2023-09-19T07:18:54;5.43;;;4.40;;
6223;SDS011;3145;42.726;23.342;2023-09-19T07:21:21;6.20;;;4.57;;
6223;SDS011;3145;42.726;23.342;2023-09-19T07:23:48;5.03;;;4.70;;
6223;SDS011;3145;42.726;23.342;2023-09-19T07:26:15;7.60;;;5.00;;
6223;SDS011;3145;42.726;23.342;2023-09-19T07:28:43;4.50;;;4.10;;
6223;SDS011;3145;42.726;23.342;2023-09-19T07:31:09;5.23;;;4.73;;
6223;SDS011;3145;42.726;23.342;2023-09-19T07:33:38;5.07;;;4.57;;
6223;SDS011;3145;42.726;23.342;2023-09-19T07:36:05;5.90;;;5.30;;
6223;SDS011;3145;42.726;23.342;2023-09-19T07:38:32;5.17;;;4.30;;
6223;SDS011;3145;42.726;23.342;2023-09-19T07:41:00;9.27;;;4.80;;
6223;SDS011;3145;42.726;23.342;2023-09-19T07:43:28;5.10;;;4.37;;
6223;SDS011;3145;42.726;23.342;2023-09-19T07:45:57;6.40;;;4.87;;
6223;SDS011;3145;42.726;23.342;2023-09-19T07:48:25;5.27;;;4.77;;
6223;SDS011;3145;42.726;23.342;2023-09-19T07:50:52;4.83;;;4.53;;
6223;SDS011;3145;42.726;23.342;2023-09-19T07:53:20;6.27;;;4.50;;
6223;SDS011;3145;42.726;23.342;2023-09-19T07:55:47;4.83;;;4.43;;
6223;SDS011;3145;42.726;23.342;2023-09-19T07:58:14;5.87;;;4.50;;
6223;SDS011;3145;42.726;23.342;2023-09-19T08:00:41;5.10;;;4.60;;
6223;SDS011;3145;42.726;23.342;2023-09-19T08:03:09;7.83;;;4.70;;
6223;SDS011;3145;42.726;23.342;2023-09-19T08:05:39;4.87;;;4.10;;
6223;SDS011;3145;42.726;23.342;2023-09-19T08:08:08;5.00;;;4.60;;
6223;SDS011;3145;42.726;23.342;2023-09-19T08:10:35;6.03;;;4.90;;
6223;SDS011;3145;42.726;23.342;2023-09-19T08:13:05;4.90;;;4.50;;
6223;SDS011;3145;42.726;23.342;2023-09-19T08:15:36;8.27;;;5.37;;
6223;SDS011;3145;42.726;23.342;2023-09-19T08:18:10;5.83;;;5.17;;
6223;SDS011;3145;42.726;23.342;2023-09-19T08:20:37;6.87;;;4.77;;
6223;SDS011;3145;42.726;23.342;2023-09-19T08:23:04;14.83;;;4.47;;
6223;SDS011;3145;42.726;23.342;2023-09-19T08:25:33;8.37;;;6.40;;
6223;SDS011;3145;42.726;23.342;2023-09-19T08:28:00;7.97;;;5.63;;
6223;SDS011;3145;42.726;23.342;2023-09-19T08:30:28;5.67;;;4.90;;
6223;SDS011;3145;42.726;23.342;2023-09-19T08:32:56;5.37;;;4.60;;
6223;SDS011;3145;42.726;23.342;2023-09-19T08:35:25;5.67;;;5.00;;
6223;SDS011;3145;42.726;23.342;2023-09-19T08:37:53;6.30;;;4.77;;
6223;SDS011;3145;42.726;23.342;2023-09-19T08:40:20;8.67;;;4.90;;
6223;SDS011;3145;42.726;23.342;2023-09-19T08:42:48;7.83;;;4.67;;
6223;SDS011;3145;42.726;23.342;2023-09-19T08:45:16;5.93;;;5.33;;
6223;SDS011;3145;42.726;23.342;2023-09-19T08:47:45;5.50;;;5.00;;
6223;SDS011;3145;42.726;23.342;2023-09-19T08:50:17;12.50;;;8.27;;
6223;SDS011;3145;42.726;23.342;2023-09-19T08:52:48;5.00;;;4.63;;
6223;SDS011;3145;42.726;23.342;2023-09-19T08:55:19;5.93;;;5.33;;
6223;SDS011;3145;42.726;23.342;2023-09-19T08:57:53;7.83;;;5.63;;
6223;SDS011;3145;42.726;23.342;2023-09-19T09:00:27;8.13;;;5.53;;
6223;SDS011;3145;42.726;23.342;2023-09-19T09:02:55;6.03;;;5.20;;
6223;SDS011;3145;42.726;23.342;2023-09-19T09:05:23;6.80;;;5.10;;
6223;SDS011;3145;42.726;23.342;2023-09-19T09:07:51;5.77;;;5.20;;
6223;SDS011;3145;42.726;23.342;2023-09-19T09:10:21;6.47;;;5.47;;
6223;SDS011;3145;42.726;23.342;2023-09-19T09:12:48;8.83;;;5.70;;
6223;SDS011;3145;42.726;23.342;2023-09-19T09:15:17;7.97;;;5.63;;
6223;SDS011;3145;42.726;23.342;2023-09-19T09:17:47;8.07;;;6.03;;
6223;SDS011;3145;42.726;23.342;2023-09-19T09:20:15;5.30;;;4.80;;
6223;SDS011;3145;42.726;23.342;2023-09-19T09:22:50;5.13;;;4.33;;
6223;SDS011;3145;42.726;23.342;2023-09-19T09:25:20;5.90;;;4.87;;
6223;SDS011;3145;42.726;23.342;2023-09-19T09:27:58;7.00;;;4.93;;
6223;SDS011;3145;42.726;23.342;2023-09-19T09:30:32;6.50;;;3.77;;
6223;SDS011;3145;42.726;23.342;2023-09-19T09:33:07;4.70;;;4.40;;
6223;SDS011;3145;42.726;23.342;2023-09-19T09:35:35;8.73;;;5.13;;
6223;SDS011;3145;42.726;23.342;2023-09-19T09:38:03;5.37;;;4.90;;
6223;SDS011;3145;42.726;23.342;2023-09-19T09:40:43;5.37;;;4.87;;
6223;SDS011;3145;42.726;23.342;2023-09-19T09:43:24;6.27;;;4.67;;
6223;SDS011;3145;42.726;23.342;2023-09-19T09:46:05;6.82;;;4.90;;
6223;SDS011;3145;42.726;23.342;2023-09-19T09:48:55;9.43;;;4.38;;
6223;SDS011;3145;42.726;23.342;2023-09-19T09:51:41;5.63;;;5.13;;
6223;SDS011;3145;42.726;23.342;2023-09-19T09:54:13;6.28;;;4.10;;
6223;SDS011;3145;42.726;23.342;2023-09-19T09:56:53;5.10;;;4.60;;
6223;SDS011;3145;42.726;23.342;2023-09-19T09:59:26;8.77;;;5.37;;
6223;SDS011;3145;42.726;23.342;2023-09-19T10:02:12;9.43;;;4.60;;
6223;SDS011;3145;42.726;23.342;2023-09-19T10:04:41;7.43;;;5.10;;
6223;SDS011;3145;42.726;23.342;2023-09-19T10:07:26;5.63;;;4.83;;
6223;SDS011;3145;42.726;23.342;2023-09-19T10:09:58;7.90;;;4.70;;
6223;SDS011;3145;42.726;23.342;2023-09-19T10:12:38;5.18;;;4.78;;
6223;SDS011;3145;42.726;23.342;2023-09-19T10:15:15;6.68;;;5.07;;
6223;SDS011;3145;42.726;23.342;2023-09-19T10:17:45;6.55;;;5.90;;
6223;SDS011;3145;42.726;23.342;2023-09-19T10:20:13;5.60;;;5.00;;
6223;SDS011;3145;42.726;23.342;2023-09-19T10:22:58;6.13;;;4.90;;
6223;SDS011;3145;42.726;23.342;2023-09-19T10:25:28;12.48;;;5.13;;
6223;SDS011;3145;42.726;23.342;2023-09-19T10:27:56;4.85;;;4.53;;
6223;SDS011;3145;42.726;23.342;2023-09-19T10:30:25;6.13;;;5.00;;
6223;SDS011;3145;42.726;23.342;2023-09-19T10:32:57;5.00;;;4.60;;
6223;SDS011;3145;42.726;23.342;2023-09-19T10:35:27;8.18;;;5.40;;
6223;SDS011;3145;42.726;23.342;2023-09-19T10:37:54;9.63;;;5.18;;
6223;SDS011;3145;42.726;23.342;2023-09-19T10:40:27;5.10;;;4.70;;
6223;SDS011;3145;42.726;23.342;2023-09-19T10:43:00;9.02;;;4.43;;
6223;SDS011;3145;42.726;23.342;2023-09-19T10:45:31;5.68;;;4.03;;
6223;SDS011;3145;42.726;23.342;2023-09-19T10:47:59;4.50;;;4.15;;
6223;SDS011;3145;42.726;23.342;2023-09-19T10:50:27;6.15;;;4.65;;
6223;SDS011;3145;42.726;23.342;2023-09-19T10:52:59;9.07;;;4.45;;
6223;SDS011;3145;42.726;23.342;2023-09-19T10:55:33;11.48;;;4.57;;
6223;SDS011;3145;42.726;23.342;2023-09-19T10:58:01;4.50;;;4.20;;
6223;SDS011;3145;42.726;23.342;2023-09-19T11:00:49;4.90;;;4.45;;
6223;SDS011;3145;42.726;23.342;2023-09-19T11:03:21;7.00;;;4.38;;
6223;SDS011;3145;42.726;23.342;2023-09-19T11:06:05;6.07;;;4.65;;
6223;SDS011;3145;42.726;23.342;2023-09-19T11:08:51;5.63;;;4.40;;
6223;SDS011;3145;42.726;23.342;2023-09-19T11:14:37;6.65;;;4.43;;
6223;SDS011;3145;42.726;23.342;2023-09-19T11:23:22;10.75;;;5.35;;
6223;SDS011;3145;42.726;23.342;2023-09-19T11:25:53;8.02;;;5.07;;
6223;SDS011;3145;42.726;23.342;2023-09-19T11:28:31;5.30;;;4.82;;
6223;SDS011;3145;42.726;23.342;2023-09-19T11:40:33;9.68;;;4.72;;
6223;SDS011;3145;42.726;23.342;2023-09-19T11:43:00;12.98;;;5.10;;
6223;SDS011;3145;42.726;23.342;2023-09-19T11:46:05;5.50;;;5.00;;
6223;SDS011;3145;42.726;23.342;2023-09-19T11:48:32;7.70;;;5.13;;
6223;SDS011;3145;42.726;23.342;2023-09-19T11:51:08;11.05;;;5.00;;
6223;SDS011;3145;42.726;23.342;2023-09-19T11:53:44;6.15;;;5.15;;
6223;SDS011;3145;42.726;23.342;2023-09-19T11:56:14;6.70;;;6.03;;
6223;SDS011;3145;42.726;23.342;2023-09-19T11:58:44;8.60;;;4.70;;
6223;SDS011;3145;42.726;23.342;2023-09-19T12:01:15;8.63;;;5.57;;
6223;SDS011;3145;42.726;23.342;2023-09-19T12:03:47;7.07;;;4.80;;
6223;SDS011;3145;42.726;23.342;2023-09-19T12:06:23;6.70;;;5.00;;
6223;SDS011;3145;42.726;23.342;2023-09-19T12:08:51;7.40;;;5.40;;
6223;SDS011;3145;42.726;23.342;2023-09-19T12:11:19;7.00;;;4.97;;
6223;SDS011;3145;42.726;23.342;2023-09-19T12:13:49;6.00;;;5.50;;
6223;SDS011;3145;42.726;23.342;2023-09-19T12:16:18;9.55;;;5.30;;
6223;SDS011;3145;42.726;23.342;2023-09-19T12:18:47;29.38;;;7.00;;
6223;SDS011;3145;42.726;23.342;2023-09-19T12:21:22;13.25;;;5.05;;
6223;SDS011;3145;42.726;23.342;2023-09-19T12:23:57;9.07;;;5.15;;
6223;SDS011;3145;42.726;23.342;2023-09-19T12:26:42;16.40;;;5.55;;
6223;SDS011;3145;42.726;23.342;2023-09-19T12:29:15;7.78;;;5.60;;
6223;SDS011;3145;42.726;23.342;2023-09-19T12:31:49;7.88;;;5.95;;
6223;SDS011;3145;42.726;23.342;2023-09-19T12:34:22;10.75;;;5.25;;
6223;SDS011;3145;42.726;23.342;2023-09-19T12:39:40;7.40;;;6.03;;
6223;SDS011;3145;42.726;23.342;2023-09-19T12:42:09;6.43;;;5.43;;
6223;SDS011;3145;42.726;23.342;2023-09-19T12:44:41;5.68;;;5.28;;
6223;SDS011;3145;42.726;23.342;2023-09-19T12:47:10;8.82;;;5.28;;
6223;SDS011;3145;42.726;23.342;2023-09-19T12:52:36;6.22;;;5.18;;
6223;SDS011;3145;42.726;23.342;2023-09-19T12:55:04;7.18;;;5.40;;
6223;SDS011;3145;42.726;23.342;2023-09-19T12:57:32;6.38;;;5.18;;
6223;SDS011;3145;42.726;23.342;2023-09-19T13:00:01;6.28;;;5.40;;
6223;SDS011;3145;42.726;23.342;2023-09-19T13:02:30;6.63;;;5.30;;
6223;SDS011;3145;42.726;23.342;2023-09-19T13:04:57;6.50;;;5.93;;
6223;SDS011;3145;42.726;23.342;2023-09-19T13:07:42;7.50;;;6.05;;
6223;SDS011;3145;42.726;23.342;2023-09-19T13:10:10;5.43;;;5.03;;
6223;SDS011;3145;42.726;23.342;2023-09-19T13:12:40;8.70;;;6.22;;
6223;SDS011;3145;42.726;23.342;2023-09-19T13:15:11;7.82;;;6.07;;
6223;SDS011;3145;42.726;23.342;2023-09-19T13:17:45;6.65;;;5.55;;
6223;SDS011;3145;42.726;23.342;2023-09-19T13:20:22;6.50;;;5.47;;
6223;SDS011;3145;42.726;23.342;2023-09-19T13:22:54;6.25;;;5.70;;
6223;SDS011;3145;42.726;23.342;2023-09-19T13:25:24;8.52;;;5.55;;
6223;SDS011;3145;42.726;23.342;2023-09-19T13:27:54;10.73;;;6.10;;
6223;SDS011;3145;42.726;23.342;2023-09-19T13:30:24;8.95;;;5.32;;
6223;SDS011;3145;42.726;23.342;2023-09-19T13:32:52;8.02;;;5.65;;
6223;SDS011;3145;42.726;23.342;2023-09-19T13:35:19;8.85;;;6.07;;
6223;SDS011;3145;42.726;23.342;2023-09-19T13:37:47;7.00;;;6.10;;
6223;SDS011;3145;42.726;23.342;2023-09-19T13:40:16;7.70;;;6.53;;
6223;SDS011;3145;42.726;23.342;2023-09-19T13:42:43;6.40;;;5.55;;
6223;SDS011;3145;42.726;23.342;2023-09-19T13:45:10;10.85;;;6.15;;
6223;SDS011;3145;42.726;23.342;2023-09-19T13:47:42;6.80;;;6.15;;
6223;SDS011;3145;42.726;23.342;2023-09-19T13:50:09;6.85;;;6.05;;
6223;SDS011;3145;42.726;23.342;2023-09-19T13:52:36;10.05;;;5.88;;
6223;SDS011;3145;42.726;23.342;2023-09-19T13:55:03;8.30;;;5.88;;
6223;SDS011;3145;42.726;23.342;2023-09-19T13:57:31;7.47;;;5.85;;
6223;SDS011;3145;42.726;23.342;2023-09-19T13:59:58;11.45;;;5.72;;
6223;SDS011;3145;42.726;23.342;2023-09-19T14:02:25;6.03;;;5.45;;
6223;SDS011;3145;42.726;23.342;2023-09-19T14:04:54;7.38;;;6.10;;
6223;SDS011;3145;42.726;23.342;2023-09-19T14:07:23;6.13;;;5.65;;
6223;SDS011;3145;42.726;23.342;2023-09-19T14:09:49;7.38;;;5.53;;
6223;SDS011;3145;42.726;23.342;2023-09-19T14:12:16;7.65;;;5.95;;
6223;SDS011;3145;42.726;23.342;2023-09-19T14:14:43;7.63;;;6.22;;
6223;SDS011;3145;42.726;23.342;2023-09-19T14:17:10;8.02;;;6.60;;
6223;SDS011;3145;42.726;23.342;2023-09-19T14:19:40;6.47;;;5.65;;
6223;SDS011;3145;42.726;23.342;2023-09-19T14:22:10;8.93;;;6.15;;
6223;SDS011;3145;42.726;23.342;2023-09-19T14:24:36;7.20;;;5.75;;
6223;SDS011;3145;42.726;23.342;2023-09-19T14:27:03;6.45;;;5.95;;
6223;SDS011;3145;42.726;23.342;2023-09-19T14:29:31;13.30;;;6.97;;
6223;SDS011;3145;42.726;23.342;2023-09-19T14:31:58;7.15;;;6.10;;
6223;SDS011;3145;42.726;23.342;2023-09-19T14:34:25;6.22;;;5.45;;
6223;SDS011;3145;42.726;23.342;2023-09-19T14:36:52;7.03;;;6.40;;
6223;SDS011;3145;42.726;23.342;2023-09-19T14:39:20;10.98;;;6.00;;
6223;SDS011;3145;42.726;23.342;2023-09-19T14:41:48;10.98;;;5.85;;
6223;SDS011;3145;42.726;23.342;2023-09-19T14:44:15;8.15;;;5.75;;
6223;SDS011;3145;42.726;23.342;2023-09-19T14:46:42;5.80;;;5.40;;
6223;SDS011;3145;42.726;23.342;2023-09-19T14:49:10;7.72;;;5.30;;
6223;SDS011;3145;42.726;23.342;2023-09-19T14:51:37;9.07;;;5.30;;
6223;SDS011;3145;42.726;23.342;2023-09-19T14:54:04;7.95;;;5.50;;
6223;SDS011;3145;42.726;23.342;2023-09-19T14:56:34;9.07;;;6.18;;
6223;SDS011;3145;42.726;23.342;2023-09-19T14:59:01;7.53;;;6.07;;
6223;SDS011;3145;42.726;23.342;2023-09-19T15:01:27;9.90;;;5.70;;
6223;SDS011;3145;42.726;23.342;2023-09-19T15:03:54;8.52;;;5.93;;
6223;SDS011;3145;42.726;23.342;2023-09-19T15:06:21;10.07;;;5.75;;
6223;SDS011;3145;42.726;23.342;2023-09-19T15:08:49;6.32;;;5.68;;
6223;SDS011;3145;42.726;23.342;2023-09-19T15:11:16;8.50;;;6.18;;
6223;SDS011;3145;42.726;23.342;2023-09-19T15:13:44;7.40;;;6.55;;
6223;SDS011;3145;42.726;23.342;2023-09-19T15:16:12;9.07;;;5.95;;
6223;SDS011;3145;42.726;23.342;2023-09-19T15:18:39;8.80;;;6.63;;
6223;SDS011;3145;42.726;23.342;2023-09-19T15:21:07;12.88;;;7.18;;
6223;SDS011;3145;42.726;23.342;2023-09-19T15:23:35;8.77;;;7.18;;
6223;SDS011;3145;42.726;23.342;2023-09-19T15:26:03;7.60;;;6.80;;
6223;SDS011;3145;42.726;23.342;2023-09-19T15:28:30;11.23;;;7.30;;
6223;SDS011;3145;42.726;23.342;2023-09-19T15:31:00;13.90;;;8.50;;
6223;SDS011;3145;42.726;23.342;2023-09-19T15:33:27;8.45;;;7.65;;
6223;SDS011;3145;42.726;23.342;2023-09-19T15:36:00;8.68;;;7.35;;